Alexander Mills, North Carolina
Current Conditions -  °F | °C
As of 11:55 PM on Sunday 23 Nov 2014 (Local Time) from KFQD Reporting Station
Overcast Overcast  
Wind Chill: 45°   Ceiling: 1200
Heat Index: 48°   Visibility: 10mi
Dew Point: 48°   Wind: 8mph
Humidity: 100%   Direction: 190°S
Pressure: 29.74"   Gusts: NA
Location:  35.27°N, 81.8676°W
Report Text: KFQD 240455Z AUTO 19007KT 10SM OVC012 09/09 A2974 RMK AO2 T00910091
Loading
Personal Weather Stations






























Interactive Weather Map New forecast layout! Learn more

10-Day Weather Forecast

Advertisements
Track Severe Weather on mobile